Terminal Aerodrome Forecast
Issued by NWS

Home | Current Version | Previous Version | Text Only | Print | Product List | Glossary On
Versions: 1 2 3 4 5 6 7 8 9 10 11 12 13 14 15 16 17 18 19 20 21 22 23 24 25 26
813
FTAK31 PAFA 190825 AAA
TAFAMC
TAF AMD
PAMC 190825Z 1908/2006 02005KT 5SM -SHSN BKN025 OVC050
     FM191100 31004KT P6SM SCT025 BKN050
     FM200400 16003KT P6SM SCT030 BKN090=

USA.gov is the U.S. government's official web portal to all federal, state and local government web resources and services.